Time;durP1;ratioP1;P1;durP2;ratioP2;P2;SDS_P1;SDS_P2;PMS_P1;PMS_P2;Temp;Humidity;BMP_temperature;BMP_pressure;BME280_temperature;BME280_humidity;BME280_pressure;Samples;Min_cycle;Max_cycle;Signal;HPM_P1;HPM_P2
2021/12/18 00:00:39;;;;;;;48.92;36.42;;;6.10;75.70;;;;;;4960962;28;20042;-80
2021/12/18 00:03:06;;;;;;;46.35;34.58;;;6.10;75.60;;;;;;4968018;28;20066;-80
2021/12/18 00:05:31;;;;;;;47.30;34.83;;;6.20;75.40;;;;;;4968110;28;20121;-79
2021/12/18 00:07:57;;;;;;;46.63;34.95;;;6.20;75.40;;;;;;4961476;28;20118;-80
2021/12/18 00:10:23;;;;;;;47.40;34.05;;;6.10;75.40;;;;;;4967892;28;20512;-79
2021/12/18 00:12:51;;;;;;;48.72;34.75;;;6.10;75.50;;;;;;4956867;28;20047;-79
2021/12/18 00:15:22;;;;;;;46.20;34.88;;;6.00;75.60;;;;;;4957865;28;20130;-80
2021/12/18 00:17:48;;;;;;;50.08;36.60;;;6.00;75.60;;;;;;4959218;28;20560;-81
2021/12/18 00:20:15;;;;;;;49.65;37.05;;;6.00;75.70;;;;;;4971377;28;20058;-81
2021/12/18 00:22:41;;;;;;;44.60;35.33;;;6.00;75.70;;;;;;4963140;28;20038;-81
2021/12/18 00:25:08;;;;;;;47.97;36.10;;;6.10;75.60;;;;;;4977135;28;20050;-81
2021/12/18 00:27:34;;;;;;;48.03;36.97;;;6.00;75.30;;;;;;4975630;28;20113;-81
2021/12/18 00:30:00;;;;;;;48.78;37.10;;;6.10;75.60;;;;;;4961479;28;20054;-81
2021/12/18 00:32:26;;;;;;;44.38;34.85;;;6.10;75.40;;;;;;4973364;28;20038;-81
2021/12/18 00:34:52;;;;;;;50.60;38.00;;;6.10;75.50;;;;;;4976050;28;20043;-81
2021/12/18 00:37:18;;;;;;;52.88;38.08;;;6.10;75.50;;;;;;4975046;28;20030;-81
2021/12/18 00:39:54;;;;;;;49.03;36.15;;;6.20;75.40;;;;;;4976537;28;20109;-80
2021/12/18 00:42:35;;;;;;;45.83;34.17;;;6.20;75.00;;;;;;4964565;28;20067;-80
2021/12/18 00:45:14;;;;;;;42.20;33.05;;;6.30;74.70;;;;;;4982942;28;20066;-80
2021/12/18 00:47:40;;;;;;;41.03;32.35;;;6.20;74.10;;;;;;4974432;28;20035;-80
2021/12/18 00:50:08;;;;;;;43.70;32.85;;;6.20;73.90;;;;;;4962870;28;20531;-79
2021/12/18 00:52:34;;;;;;;42.65;32.50;;;6.10;74.30;;;;;;4976520;28;20058;-79
2021/12/18 00:55:00;;;;;;;44.28;33.60;;;6.00;74.60;;;;;;4977373;28;20055;-80
2021/12/18 00:57:26;;;;;;;46.60;34.72;;;5.90;75.00;;;;;;4984432;28;20039;-79
2021/12/18 00:59:54;;;;;;;48.03;33.78;;;5.90;75.20;;;;;;4975126;28;20070;-79
2021/12/18 01:02:19;;;;;;;44.63;34.22;;;6.00;75.20;;;;;;4974710;28;20091;-78
2021/12/18 01:04:45;;;;;;;44.10;34.13;;;6.00;75.10;;;;;;4983745;28;20539;-80
2021/12/18 01:07:11;;;;;;;42.72;33.33;;;6.00;75.10;;;;;;4967577;28;20043;-80
2021/12/18 01:10:02;;;;;;;45.25;33.97;;;6.10;75.10;;;;;;4960191;28;20074;-80
2021/12/18 01:12:39;;;;;;;47.65;34.70;;;6.10;74.80;;;;;;4958231;28;20043;-80
2021/12/18 01:15:24;;;;;;;45.08;33.92;;;6.10;74.80;;;;;;4974220;28;20162;-80
2021/12/18 01:23:22;;;;;;;43.28;33.45;;;6.20;75.00;;;;;;4966518;28;20098;-80
2021/12/18 01:25:52;;;;;;;47.35;34.58;;;6.20;74.80;;;;;;4956013;28;20146;-79
2021/12/18 01:28:18;;;;;;;43.83;34.40;;;6.20;74.80;;;;;;4970323;28;20114;-80
2021/12/18 01:30:44;;;;;;;44.60;34.53;;;6.20;74.80;;;;;;4959434;28;20559;-80
2021/12/18 01:33:10;;;;;;;47.67;34.88;;;6.20;74.80;;;;;;4970730;28;20043;-80
2021/12/18 01:35:36;;;;;;;45.50;35.08;;;6.20;74.80;;;;;;4974345;28;20117;-80
2021/12/18 01:38:02;;;;;;;44.65;34.13;;;6.20;74.70;;;;;;4967257;28;20020;-80
2021/12/18 01:40:29;;;;;;;45.95;34.88;;;6.30;74.60;;;;;;4954969;28;20051;-80
2021/12/18 01:53:30;;;;;;;48.13;35.10;;;6.00;74.70;;;;;;4964346;28;20046;-80
2021/12/18 01:55:55;;;;;;;45.42;34.35;;;6.00;74.80;;;;;;4955243;28;20392;-80
2021/12/18 01:58:24;;;;;;;50.00;36.72;;;6.00;75.30;;;;;;4960841;28;20094;-80
2021/12/18 02:00:52;;;;;;;45.88;34.42;;;6.00;74.90;;;;;;4955493;28;20436;-80
2021/12/18 02:03:18;;;;;;;57.83;40.60;;;5.90;75.20;;;;;;4955290;28;20542;-80
2021/12/18 02:05:43;;;;;;;50.38;34.03;;;5.70;75.50;;;;;;4955400;28;20035;-80
2021/12/18 02:08:09;;;;;;;52.90;36.13;;;5.50;76.30;;;;;;4960309;28;20376;-80
2021/12/18 02:10:49;;;;;;;76.63;55.00;;;5.60;76.10;;;;;;4961839;28;20035;-80
2021/12/18 02:21:26;;;;;;;44.08;33.67;;;5.20;77.30;;;;;;4967690;28;20102;-79
2021/12/18 02:23:52;;;;;;;48.13;36.45;;;5.40;76.80;;;;;;4960166;28;20059;-79
2021/12/18 02:26:18;;;;;;;49.22;36.65;;;5.50;76.60;;;;;;4970712;28;20666;-80
2021/12/18 02:28:47;;;;;;;51.63;37.30;;;5.60;76.20;;;;;;4963628;28;20065;-80
2021/12/18 02:31:13;;;;;;;50.15;36.03;;;5.60;75.90;;;;;;4973534;28;20081;-81
2021/12/18 02:33:39;;;;;;;48.95;36.40;;;5.60;76.00;;;;;;4972981;28;20042;-81
2021/12/18 02:36:07;;;;;;;46.13;34.35;;;5.60;75.70;;;;;;4967953;28;20117;-81
2021/12/18 02:44:02;;;;;;;47.33;35.47;;;5.60;75.90;;;;;;4963551;28;20510;-80
2021/12/18 02:46:28;;;;;;;47.05;34.20;;;5.60;75.90;;;;;;4955616;28;20102;-80
2021/12/18 02:48:55;;;;;;;49.78;36.05;;;5.50;76.10;;;;;;4962021;28;20387;-81
2021/12/18 02:51:21;;;;;;;46.70;36.22;;;5.40;76.70;;;;;;4962982;28;20045;-80
2021/12/18 02:53:50;;;;;;;44.55;33.63;;;5.50;76.30;;;;;;4976270;28;20043;-81
2021/12/18 02:56:19;;;;;;;46.05;34.13;;;5.40;76.60;;;;;;4967776;28;20043;-80
2021/12/18 02:58:47;;;;;;;46.33;35.17;;;5.40;76.70;;;;;;4972380;28;20578;-80
2021/12/18 03:01:16;;;;;;;46.78;35.33;;;5.50;76.60;;;;;;4964436;28;20371;-80
2021/12/18 03:03:43;;;;;;;49.40;34.70;;;5.50;76.80;;;;;;4965380;28;20046;-80
2021/12/18 03:09:17;;;;;;;47.28;35.15;;;5.70;77.00;;;;;;4967858;28;20407;-81
2021/12/18 03:25:29;;;;;;;42.90;30.65;;;6.00;77.50;;;;;;4972298;28;20475;-81
2021/12/18 03:27:58;;;;;;;45.78;31.83;;;6.00;77.60;;;;;;4970462;28;20421;-81
2021/12/18 03:30:24;;;;;;;39.80;28.88;;;6.10;77.70;;;;;;4972940;28;20468;-81
2021/12/18 03:32:49;;;;;;;38.97;27.70;;;6.10;78.00;;;;;;4972874;28;20114;-80
2021/12/18 03:35:16;;;;;;;54.78;37.45;;;6.20;77.40;;;;;;4958280;28;20405;-80
2021/12/18 03:37:43;;;;;;;38.05;27.60;;;6.10;77.30;;;;;;4966943;28;20036;-79
2021/12/18 03:40:15;;;;;;;36.30;25.33;;;6.10;77.50;;;;;;4958081;28;20483;-79
2021/12/18 03:42:41;;;;;;;37.40;26.73;;;6.00;77.60;;;;;;4960279;28;20086;-80
2021/12/18 03:45:08;;;;;;;36.47;27.85;;;6.00;77.60;;;;;;4965552;28;20043;-80
2021/12/18 03:47:34;;;;;;;35.72;26.73;;;6.10;77.70;;;;;;4973289;28;20101;-80
2021/12/18 03:50:00;;;;;;;36.28;27.85;;;6.10;77.60;;;;;;4989762;28;20441;-80
2021/12/18 03:52:26;;;;;;;36.03;25.88;;;6.10;77.50;;;;;;4975192;28;20070;-80
2021/12/18 03:54:52;;;;;;;36.95;26.25;;;6.10;77.40;;;;;;4967004;28;20384;-80
2021/12/18 03:57:17;;;;;;;34.80;25.27;;;6.20;77.30;;;;;;4973427;28;20035;-80
2021/12/18 03:59:44;;;;;;;33.97;25.17;;;6.20;77.30;;;;;;4961162;28;20074;-80
2021/12/18 04:02:10;;;;;;;33.72;24.48;;;6.20;77.20;;;;;;4971757;28;20031;-80
2021/12/18 04:04:36;;;;;;;33.55;23.80;;;6.20;77.00;;;;;;4957408;28;20432;-79
2021/12/18 04:07:02;;;;;;;36.88;26.02;;;6.20;77.00;;;;;;4959256;28;20114;-79
2021/12/18 04:09:31;;;;;;;34.15;25.20;;;6.30;77.00;;;;;;4964174;28;20042;-79
2021/12/18 04:11:57;;;;;;;36.38;24.70;;;6.20;77.00;;;;;;4975717;28;20035;-79
2021/12/18 04:14:23;;;;;;;38.72;27.15;;;6.20;77.00;;;;;;4964706;28;20058;-80
2021/12/18 04:16:49;;;;;;;33.88;24.98;;;6.30;77.10;;;;;;4962036;28;20031;-79
2021/12/18 04:19:15;;;;;;;35.20;25.17;;;6.20;77.30;;;;;;4970058;28;20035;-79
2021/12/18 04:21:41;;;;;;;34.92;24.88;;;6.20;77.40;;;;;;4957309;28;20122;-79
2021/12/18 04:24:08;;;;;;;31.85;23.92;;;6.20;77.30;;;;;;4970306;28;20046;-80
2021/12/18 04:26:35;;;;;;;30.73;24.27;;;6.20;77.30;;;;;;4972831;28;20039;-80
2021/12/18 04:29:05;;;;;;;34.95;27.08;;;6.20;77.10;;;;;;4966165;28;20058;-80
2021/12/18 04:31:31;;;;;;;;;;;6.20;77.10;;;;;;4966022;28;20158;-79
2021/12/18 04:33:57;;;;;;;27.90;21.20;;;6.20;77.10;;;;;;4972966;28;19992;-79
2021/12/18 04:36:22;;;;;;;29.38;21.83;;;6.20;77.30;;;;;;4972546;28;20054;-79
2021/12/18 04:38:49;;;;;;;32.50;21.38;;;6.20;77.90;;;;;;4968221;28;20031;-79
2021/12/18 04:41:22;;;;;;;29.13;21.58;;;6.10;77.60;;;;;;4968427;28;20031;-78
2021/12/18 04:43:48;;;;;;;29.75;21.48;;;6.10;77.70;;;;;;4966368;28;20542;-79
2021/12/18 04:46:14;;;;;;;30.60;21.00;;;6.10;77.80;;;;;;4955102;28;20142;-79
2021/12/18 04:48:39;;;;;;;28.48;21.25;;;6.20;77.80;;;;;;4963355;28;20117;-79
2021/12/18 04:51:05;;;;;;;28.48;19.85;;;6.20;77.80;;;;;;4973278;28;20050;-81
2021/12/18 04:53:31;;;;;;;27.67;20.77;;;6.30;77.70;;;;;;4966884;28;20106;-80
2021/12/18 04:55:56;;;;;;;25.33;19.30;;;6.30;77.70;;;;;;4968891;28;20364;-81
2021/12/18 04:58:23;;;;;;;26.33;19.52;;;6.30;78.20;;;;;;4971193;28;20046;-80
2021/12/18 05:00:50;;;;;;;25.40;18.85;;;6.30;77.70;;;;;;4959515;28;20046;-80
2021/12/18 05:03:17;;;;;;;23.67;19.30;;;6.40;78.30;;;;;;4968978;28;20030;-79
2021/12/18 05:05:42;;;;;;;28.60;19.23;;;6.40;77.80;;;;;;4966369;28;20062;-79
2021/12/18 05:08:08;;;;;;;29.50;19.27;;;6.40;77.70;;;;;;4968880;28;20047;-79
2021/12/18 05:10:34;;;;;;;25.80;18.52;;;6.40;77.90;;;;;;4956301;28;20078;-79
2021/12/18 05:13:00;;;;;;;23.35;19.25;;;6.30;77.80;;;;;;4960177;28;20055;-79
2021/12/18 05:15:26;;;;;;;25.15;18.67;;;6.40;77.90;;;;;;4967740;28;20138;-80
2021/12/18 05:17:52;;;;;;;23.23;18.00;;;6.40;78.00;;;;;;4974667;28;20038;-80
2021/12/18 05:20:17;;;;;;;23.75;18.98;;;6.30;78.20;;;;;;4955678;28;20031;-80
2021/12/18 05:22:43;;;;;;;24.83;17.65;;;6.30;78.30;;;;;;4958156;28;20055;-81
2021/12/18 05:25:09;;;;;;;27.58;18.38;;;6.40;78.40;;;;;;4966226;28;20042;-80
2021/12/18 05:27:36;;;;;;;25.13;17.77;;;6.40;78.40;;;;;;4964721;28;20058;-80
2021/12/18 05:30:09;;;;;;;24.25;17.65;;;6.40;78.50;;;;;;4969565;28;20476;-80
2021/12/18 05:32:35;;;;;;;20.75;16.27;;;6.40;78.60;;;;;;4972899;28;20097;-80
2021/12/18 05:35:03;;;;;;;19.85;15.88;;;6.40;78.60;;;;;;4956055;28;20039;-81
2021/12/18 05:40:15;;;;;;;19.13;15.23;;;6.40;79.20;;;;;;4955621;28;20178;-80
2021/12/18 05:42:40;;;;;;;19.63;14.77;;;6.30;79.30;;;;;;4969952;28;20391;-80
2021/12/18 05:45:07;;;;;;;17.63;14.20;;;6.30;79.60;;;;;;4961035;28;20046;-80
2021/12/18 05:47:34;;;;;;;19.70;14.30;;;6.30;79.80;;;;;;4955275;28;20419;-80
2021/12/18 05:49:59;;;;;;;19.75;13.93;;;6.30;79.90;;;;;;4956396;28;20574;-80
2021/12/18 05:52:25;;;;;;;25.23;19.27;;;6.30;79.80;;;;;;4955678;28;20071;-80
2021/12/18 05:54:51;;;;;;;22.80;15.48;;;6.10;80.60;;;;;;4967812;28;20042;-80
2021/12/18 05:57:17;;;;;;;22.98;16.20;;;6.10;80.40;;;;;;4967990;28;20042;-80
2021/12/18 05:59:44;;;;;;;22.00;15.57;;;6.00;80.30;;;;;;4966877;28;20050;-80
2021/12/18 06:02:10;;;;;;;20.75;15.30;;;6.10;80.10;;;;;;4960395;28;20035;-81
2021/12/18 06:04:36;;;;;;;20.63;14.82;;;6.10;80.10;;;;;;4970861;28;20404;-81
2021/12/18 06:07:06;;;;;;;25.65;16.23;;;6.10;80.30;;;;;;4969685;28;20045;-81
2021/12/18 06:09:34;;;;;;;22.15;15.13;;;6.20;80.30;;;;;;4964606;28;20070;-81
2021/12/18 06:12:00;;;;;;;24.73;16.15;;;6.20;80.30;;;;;;4961985;28;20043;-80
2021/12/18 06:14:27;;;;;;;21.48;15.05;;;6.20;80.20;;;;;;4963753;28;20043;-79
2021/12/18 06:16:53;;;;;;;21.50;15.15;;;6.30;80.30;;;;;;4973078;28;20491;-79
2021/12/18 06:19:19;;;;;;;21.90;16.00;;;6.30;80.50;;;;;;4970105;28;20043;-80
2021/12/18 06:21:45;;;;;;;23.80;16.15;;;6.30;80.30;;;;;;4963962;28;20392;-80
2021/12/18 06:24:11;;;;;;;21.08;14.98;;;6.40;80.20;;;;;;4960098;28;20054;-80
2021/12/18 06:26:36;;;;;;;24.48;16.77;;;6.30;80.70;;;;;;4955350;28;21156;-80
2021/12/18 06:29:02;;;;;;;20.50;15.10;;;6.30;80.10;;;;;;4961712;28;20147;-80
2021/12/18 06:31:28;;;;;;;24.38;17.45;;;6.30;80.30;;;;;;4968418;28;20507;-80
2021/12/18 06:33:54;;;;;;;25.38;17.27;;;6.40;80.50;;;;;;4962139;28;20125;-80
2021/12/18 06:36:19;;;;;;;25.30;16.45;;;6.30;80.40;;;;;;4972871;28;20093;-80
2021/12/18 06:38:45;;;;;;;23.33;16.33;;;6.40;80.70;;;;;;4971313;28;20039;-80
2021/12/18 06:41:11;;;;;;;25.83;17.23;;;6.30;80.80;;;;;;4967985;28;20036;-80
2021/12/18 06:43:36;;;;;;;28.27;17.65;;;6.30;81.30;;;;;;4967579;28;20432;-80
2021/12/18 06:46:02;;;;;;;26.02;17.85;;;6.30;81.40;;;;;;4964414;28;20035;-80
2021/12/18 06:48:28;;;;;;;28.58;18.25;;;6.40;81.70;;;;;;4972344;28;20054;-80
2021/12/18 06:50:53;;;;;;;23.60;16.63;;;6.40;81.80;;;;;;4965883;28;20054;-81
2021/12/18 06:53:19;;;;;;;25.60;16.35;;;6.40;81.80;;;;;;4965596;28;20125;-81
2021/12/18 06:55:46;;;;;;;21.73;15.27;;;6.40;81.90;;;;;;4975231;28;20383;-84
2021/12/18 06:58:12;;;;;;;24.65;16.23;;;6.40;81.90;;;;;;4962689;28;20027;-80
2021/12/18 07:00:38;;;;;;;22.70;16.17;;;6.50;82.00;;;;;;4963528;28;20047;-82
2021/12/18 07:03:04;;;;;;;23.08;15.23;;;6.40;82.00;;;;;;4970296;28;20035;-82
2021/12/18 07:05:30;;;;;;;19.45;13.55;;;6.40;82.00;;;;;;4976256;28;20111;-78
2021/12/18 07:07:56;;;;;;;24.05;15.27;;;6.40;81.80;;;;;;4969167;28;20123;-78
2021/12/18 07:10:22;;;;;;;21.75;13.50;;;6.20;82.00;;;;;;4957568;28;20485;-78
2021/12/18 07:12:48;;;;;;;19.48;13.48;;;6.20;82.50;;;;;;4969284;28;20042;-78
2021/12/18 07:15:14;;;;;;;26.35;13.60;;;6.20;82.40;;;;;;4962616;28;20042;-78
2021/12/18 07:17:40;;;;;;;20.92;13.50;;;6.20;82.30;;;;;;4968912;28;20109;-78
2021/12/18 07:20:11;;;;;;;20.83;13.68;;;6.30;82.30;;;;;;4958535;28;20118;-78
2021/12/18 07:22:37;;;;;;;20.90;13.10;;;6.30;82.10;;;;;;4962093;28;20050;-78
2021/12/18 07:25:04;;;;;;;19.17;13.27;;;6.40;81.90;;;;;;4965528;28;20098;-81
2021/12/18 07:27:29;;;;;;;18.35;11.13;;;6.50;81.70;;;;;;4960406;28;20409;-78
2021/12/18 07:29:55;;;;;;;19.10;12.13;;;6.50;81.80;;;;;;4958039;28;20051;-79
2021/12/18 07:32:21;;;;;;;22.35;13.63;;;6.50;81.30;;;;;;4964937;28;20543;-81
2021/12/18 07:34:46;;;;;;;17.65;12.70;;;6.50;80.80;;;;;;4971284;28;20070;-81
2021/12/18 07:37:12;;;;;;;16.77;11.50;;;6.50;80.70;;;;;;4970130;28;20043;-81
2021/12/18 07:39:38;;;;;;;18.52;11.82;;;6.50;80.80;;;;;;4970472;28;20125;-80
2021/12/18 07:42:04;;;;;;;20.70;13.82;;;6.50;80.90;;;;;;4971947;28;20038;-81
2021/12/18 07:44:30;;;;;;;17.80;12.93;;;6.50;80.90;;;;;;4972344;28;20053;-82
2021/12/18 07:46:56;;;;;;;17.75;13.20;;;6.50;80.80;;;;;;4964511;28;20043;-83
2021/12/18 07:49:21;;;;;;;21.70;13.77;;;6.60;80.70;;;;;;4974549;28;20078;-78
2021/12/18 07:51:47;;;;;;;21.77;13.85;;;6.50;80.60;;;;;;4973056;28;20049;-78
2021/12/18 07:54:13;;;;;;;19.77;12.68;;;6.50;80.50;;;;;;4975392;28;20039;-79
2021/12/18 07:56:39;;;;;;;18.20;13.48;;;6.50;80.50;;;;;;4968100;28;20046;-79
2021/12/18 07:59:04;;;;;;;20.90;13.68;;;6.50;80.50;;;;;;4956303;28;20159;-80
2021/12/18 08:01:30;;;;;;;22.67;14.40;;;6.50;80.60;;;;;;4969250;28;20039;-90
2021/12/18 08:03:56;;;;;;;20.20;14.25;;;6.50;80.70;;;;;;4962725;28;20061;-80
2021/12/18 08:06:22;;;;;;;18.92;13.52;;;6.60;80.80;;;;;;4964876;28;20472;-80
2021/12/18 08:08:48;;;;;;;25.45;16.33;;;6.50;80.80;;;;;;4964137;28;20372;-80
2021/12/18 08:11:15;;;;;;;22.40;15.25;;;6.50;80.90;;;;;;4960555;28;20404;-81
2021/12/18 08:14:09;;;;;;;20.00;14.25;;;6.40;81.90;;;;;;4960128;29;20036;-80
2021/12/18 08:16:35;;;;;;;18.23;12.85;;;6.40;81.50;;;;;;4962101;29;20476;-80
2021/12/18 08:19:00;;;;;;;19.80;13.85;;;6.40;81.50;;;;;;4956137;28;20038;-80
2021/12/18 08:21:26;;;;;;;20.25;14.20;;;6.50;81.40;;;;;;4956422;28;20086;-79
2021/12/18 08:23:52;;;;;;;21.80;13.90;;;6.60;81.30;;;;;;4965174;28;20035;-80
2021/12/18 08:26:17;;;;;;;18.92;13.70;;;6.60;81.30;;;;;;4970845;28;20047;-80
2021/12/18 08:28:43;;;;;;;24.65;17.85;;;6.60;81.30;;;;;;4956082;28;20039;-80
2021/12/18 08:31:09;;;;;;;22.33;16.08;;;6.60;81.20;;;;;;4956004;29;20456;-81
2021/12/18 08:33:35;;;;;;;20.10;14.75;;;6.50;81.70;;;;;;4961640;28;20070;-81
2021/12/18 08:36:01;;;;;;;19.77;14.15;;;6.50;81.80;;;;;;4974651;28;20066;-81
2021/12/18 08:38:27;;;;;;;19.85;14.13;;;6.60;81.70;;;;;;4975028;28;20443;-81
2021/12/18 08:40:52;;;;;;;24.50;16.85;;;6.70;81.60;;;;;;4974404;28;20055;-81
2021/12/18 08:43:18;;;;;;;22.95;15.80;;;6.60;81.70;;;;;;4961485;28;20118;-81
2021/12/18 08:45:44;;;;;;;21.83;14.82;;;6.60;82.20;;;;;;4974603;28;20049;-81
2021/12/18 08:48:10;;;;;;;21.43;14.80;;;6.70;81.90;;;;;;4934416;28;1167713;-81
2021/12/18 08:56:25;;;;;;;21.90;15.95;;;6.90;81.30;;;;;;4768205;23;20056;-79
2021/12/18 08:58:53;;;;;;;20.85;15.65;;;7.00;81.20;;;;;;5014303;28;20046;-79
2021/12/18 09:01:21;;;;;;;23.63;16.48;;;7.10;81.20;;;;;;5015115;28;20448;-79
2021/12/18 09:03:48;;;;;;;21.25;16.02;;;7.20;81.00;;;;;;4997369;28;20038;-80
2021/12/18 09:06:14;;;;;;;20.38;15.77;;;7.20;81.00;;;;;;5015119;28;20401;-79
2021/12/18 09:08:40;;;;;;;23.52;17.23;;;7.30;80.90;;;;;;4999513;28;20068;-79
2021/12/18 09:11:06;;;;;;;26.02;20.00;;;7.30;80.90;;;;;;5014684;28;20381;-79
2021/12/18 09:13:31;;;;;;;21.80;16.77;;;7.40;81.10;;;;;;5001971;28;20079;-79
2021/12/18 09:15:57;;;;;;;27.52;17.90;;;7.40;81.30;;;;;;5034582;28;20087;-79
2021/12/18 09:18:23;;;;;;;24.63;18.35;;;7.40;81.40;;;;;;5035266;28;20033;-78
2021/12/18 09:20:48;;;;;;;25.73;18.52;;;7.50;81.50;;;;;;5017126;28;20496;-78
2021/12/18 09:23:17;;;;;;;30.63;22.42;;;7.50;81.80;;;;;;5032285;28;20034;-79
2021/12/18 09:25:44;;;;;;;31.10;21.88;;;7.60;81.30;;;;;;5014294;28;20038;-79
2021/12/18 09:28:10;;;;;;;28.90;20.90;;;7.60;81.50;;;;;;5015590;28;20068;-83
2021/12/18 09:30:36;;;;;;;31.30;24.08;;;7.60;81.40;;;;;;5016347;28;20374;-83
2021/12/18 09:33:01;;;;;;;42.00;29.63;;;7.70;81.30;;;;;;5016046;28;20382;-82
2021/12/18 09:35:27;;;;;;;36.67;25.83;;;7.70;81.40;;;;;;5017417;28;20041;-84
2021/12/18 09:40:29;;;;;;;33.40;24.85;;;7.80;81.40;;;;;;5115808;23;20061;-81
2021/12/18 09:42:55;;;;;;;36.78;25.88;;;7.90;81.30;;;;;;5005739;28;20038;-81
2021/12/18 09:45:22;;;;;;;33.70;24.33;;;7.90;81.50;;;;;;4997462;28;20053;-82
2021/12/18 09:47:48;;;;;;;32.60;24.67;;;7.90;81.80;;;;;;4986095;28;20030;-80
2021/12/18 09:50:16;;;;;;;36.45;25.48;;;8.00;81.60;;;;;;4997914;28;20117;-76
2021/12/18 09:52:42;;;;;;;36.35;25.73;;;8.10;81.60;;;;;;5004011;28;20042;-77
2021/12/18 09:55:10;;;;;;;32.83;24.60;;;8.20;81.40;;;;;;5007500;28;20430;-76
2021/12/18 09:57:37;;;;;;;37.63;25.45;;;8.30;81.10;;;;;;5000005;28;20042;-76
2021/12/18 10:00:09;;;;;;;36.40;26.45;;;8.50;81.00;;;;;;5002073;28;20042;-77
2021/12/18 10:02:35;;;;;;;33.38;24.80;;;8.60;80.70;;;;;;5009374;28;20034;-77
2021/12/18 10:05:01;;;;;;;35.30;25.80;;;8.70;80.40;;;;;;5012414;28;20540;-76
2021/12/18 10:07:28;;;;;;;35.30;25.52;;;8.80;80.10;;;;;;4979440;28;20084;-75
2021/12/18 10:09:57;;;;;;;41.28;26.75;;;8.90;79.70;;;;;;4981606;28;20038;-76
2021/12/18 10:12:27;;;;;;;43.97;31.83;;;9.10;79.70;;;;;;5002046;28;20038;-76
2021/12/18 10:14:55;;;;;;;;;;;9.10;79.80;;;;;;5012412;28;20042;-78
2021/12/18 10:17:39;;;;;;;38.97;27.80;;;9.10;80.10;;;;;;4986973;28;19910;-78
2021/12/18 10:20:10;;;;;;;37.22;27.13;;;9.10;79.90;;;;;;4994066;28;20110;-76
2021/12/18 10:22:49;;;;;;;38.03;26.17;;;9.20;79.90;;;;;;5004819;28;20389;-76
2021/12/18 10:25:23;;;;;;;36.92;26.40;;;9.30;80.00;;;;;;5016429;28;20041;-77
2021/12/18 10:28:04;;;;;;;39.05;27.13;;;9.50;79.90;;;;;;5008024;28;20477;-77
2021/12/18 10:30:36;;;;;;;39.78;27.63;;;9.80;79.60;;;;;;4987998;28;20041;-84
2021/12/18 10:33:12;;;;;;;39.65;27.70;;;10.10;79.10;;;;;;4987922;28;20049;-83
2021/12/18 10:35:55;;;;;;;39.15;27.90;;;10.40;78.60;;;;;;5004001;28;20034;-82
2021/12/18 10:38:51;;;;;;;38.55;26.55;;;10.60;77.90;;;;;;5009916;28;20077;-77
2021/12/18 10:41:29;;;;;;;37.80;26.73;;;10.80;76.50;;;;;;5006965;28;20034;-78
2021/12/18 10:44:04;;;;;;;38.40;27.45;;;11.00;76.50;;;;;;4997352;28;20046;-77
2021/12/18 10:46:31;;;;;;;44.95;29.25;;;11.10;76.10;;;;;;4994181;28;20026;-77
2021/12/18 10:49:09;;;;;;;39.60;27.90;;;11.30;76.20;;;;;;5005787;28;20037;-79
2021/12/18 10:51:36;;;;;;;41.83;28.02;;;11.40;75.50;;;;;;5002352;28;20089;-77
2021/12/18 10:54:06;;;;;;;44.45;29.80;;;11.60;75.20;;;;;;4980344;28;20030;-77
2021/12/18 10:56:40;;;;;;;38.67;28.65;;;11.70;74.40;;;;;;4995816;28;20498;-78
2021/12/18 10:59:31;;;;;;;38.97;28.10;;;11.80;74.30;;;;;;5000622;28;20502;-78
2021/12/18 11:02:02;;;;;;;38.97;28.70;;;12.00;74.10;;;;;;5008392;28;20036;-78
2021/12/18 11:04:31;;;;;;;38.15;28.67;;;12.10;73.50;;;;;;4998587;28;20038;-78
2021/12/18 11:06:57;;;;;;;39.63;28.63;;;12.20;73.50;;;;;;5005986;28;20040;-78
2021/12/18 11:09:33;;;;;;;39.22;28.45;;;12.20;73.30;;;;;;4978750;28;20038;-78
2021/12/18 11:14:45;;;;;;;44.38;30.42;;;12.60;73.00;;;;;;5009443;28;20088;-78
2021/12/18 11:17:15;;;;;;;43.17;31.23;;;12.70;72.10;;;;;;4999842;28;20129;-78
2021/12/18 11:19:42;;;;;;;41.95;30.85;;;12.70;70.80;;;;;;4998675;28;20391;-77
2021/12/18 11:22:14;;;;;;;39.65;28.30;;;12.50;71.10;;;;;;5007769;28;20458;-78
2021/12/18 11:24:47;;;;;;;38.58;28.85;;;12.40;72.20;;;;;;4988111;28;20038;-78
2021/12/18 11:27:18;;;;;;;44.40;30.90;;;12.40;73.10;;;;;;5010370;28;20038;-82
2021/12/18 11:29:55;;;;;;;40.60;29.02;;;12.50;72.00;;;;;;4998074;28;20026;-83
2021/12/18 11:32:25;;;;;;;44.10;31.05;;;12.60;73.50;;;;;;4981170;28;20046;-82
2021/12/18 11:34:54;;;;;;;43.08;31.15;;;12.80;72.40;;;;;;5000012;28;20117;-83
2021/12/18 11:37:22;;;;;;;44.38;31.33;;;12.90;71.40;;;;;;5010042;28;20066;-82
2021/12/18 11:39:49;;;;;;;44.08;32.47;;;13.20;72.60;;;;;;4983037;28;20419;-84
2021/12/18 11:42:17;;;;;;;50.65;35.30;;;13.60;71.70;;;;;;5004670;28;20046;-83
2021/12/18 11:44:51;;;;;;;50.00;34.53;;;14.20;70.50;;;;;;4995455;28;20046;-77
2021/12/18 11:47:29;;;;;;;50.13;34.97;;;14.70;67.90;;;;;;5001504;28;20070;-77
2021/12/18 11:49:59;;;;;;;47.72;34.08;;;15.50;66.30;;;;;;5006796;28;20029;-77
2021/12/18 11:52:26;;;;;;;51.35;36.95;;;16.20;63.90;;;;;;5001267;28;20597;-75
2021/12/18 11:54:58;;;;;;;48.63;36.08;;;16.80;60.20;;;;;;5004368;28;20034;-75
2021/12/18 11:57:44;;;;;;;45.08;32.65;;;17.40;59.80;;;;;;5008914;28;20470;-75
2021/12/18 12:00:18;;;;;;;52.40;37.78;;;17.60;58.40;;;;;;4997368;28;20038;-75
2021/12/18 12:02:50;;;;;;;46.40;35.25;;;17.00;56.90;;;;;;4995583;28;20042;-75
2021/12/18 12:05:30;;;;;;;47.70;34.05;;;17.00;58.20;;;;;;4987079;28;20085;-76
2021/12/18 12:08:15;;;;;;;;;;;16.80;57.90;;;;;;5013560;28;20048;-76
2021/12/18 12:11:06;;;;;;;49.20;34.38;;;16.60;58.50;;;;;;5010059;28;20357;-75
2021/12/18 12:13:54;;;;;;;52.85;37.53;;;15.60;60.90;;;;;;4996743;28;20489;-75
2021/12/18 12:16:42;;;;;;;49.63;35.53;;;14.90;62.90;;;;;;5007852;28;20039;-75
2021/12/18 12:19:10;;;;;;;51.70;37.25;;;14.00;66.10;;;;;;5009425;28;20025;-75
2021/12/18 12:21:47;;;;;;;48.60;34.75;;;13.80;66.50;;;;;;5012124;28;20045;-74
2021/12/18 12:24:15;;;;;;;54.95;37.80;;;13.60;67.10;;;;;;5008886;28;20391;-75
2021/12/18 12:26:41;;;;;;;51.88;36.92;;;13.50;67.40;;;;;;4998692;28;20025;-76
2021/12/18 12:29:09;;;;;;;52.10;36.20;;;13.50;67.80;;;;;;4989640;28;20038;-75
2021/12/18 12:31:35;;;;;;;49.72;34.42;;;13.50;68.00;;;;;;5007004;28;20121;-76
2021/12/18 12:34:20;;;;;;;43.85;31.00;;;13.40;68.30;;;;;;5006019;28;20042;-76
2021/12/18 12:36:46;;;;;;;41.22;29.27;;;13.00;68.90;;;;;;5010731;28;20041;-76
2021/12/18 12:39:17;;;;;;;39.90;29.50;;;12.70;70.20;;;;;;5013877;28;20084;-76
2021/12/18 12:41:51;;;;;;;38.80;28.42;;;12.40;70.60;;;;;;4992942;28;20407;-76
2021/12/18 12:44:27;;;;;;;41.33;29.42;;;11.90;72.70;;;;;;4995703;28;20046;-76
2021/12/18 12:47:23;;;;;;;36.83;26.30;;;11.70;73.60;;;;;;5000947;28;20065;-77
2021/12/18 12:49:52;;;;;;;41.72;29.75;;;11.50;74.90;;;;;;5007439;28;20042;-77
2021/12/18 12:52:24;;;;;;;33.95;25.33;;;11.30;75.80;;;;;;5008035;28;20033;-77
2021/12/18 12:55:13;;;;;;;35.33;26.30;;;11.10;76.30;;;;;;5012326;28;20037;-77
2021/12/18 12:57:45;;;;;;;42.60;28.95;;;11.10;76.20;;;;;;4991864;28;20052;-77
2021/12/18 13:00:10;;;;;;;42.72;32.05;;;11.10;76.10;;;;;;4996093;28;20050;-77
2021/12/18 13:02:56;;;;;;;48.35;34.08;;;11.00;76.60;;;;;;4984102;28;20049;-83
2021/12/18 13:05:23;;;;;;;50.80;34.05;;;11.10;76.80;;;;;;5002841;28;20403;-79
2021/12/18 13:08:00;;;;;;;51.80;35.40;;;11.30;76.90;;;;;;5006563;28;20045;-78
2021/12/18 13:10:34;;;;;;;48.53;33.40;;;11.30;76.70;;;;;;4992663;28;20054;-79
2021/12/18 13:13:05;;;;;;;51.13;34.97;;;11.40;76.20;;;;;;5011980;28;20069;-78
2021/12/18 13:15:57;;;;;;;53.33;34.80;;;11.40;76.00;;;;;;4997328;28;20045;-78
2021/12/18 13:18:27;;;;;;;47.22;31.95;;;11.50;76.30;;;;;;5006144;28;20052;-82
2021/12/18 13:21:06;;;;;;;43.73;30.77;;;11.50;76.10;;;;;;4999523;28;20030;-82
2021/12/18 13:23:38;;;;;;;39.95;29.67;;;11.50;75.90;;;;;;4995453;28;20077;-78
2021/12/18 13:26:07;;;;;;;37.63;27.77;;;11.50;76.00;;;;;;4997342;28;20060;-79
2021/12/18 13:28:33;;;;;;;33.88;26.25;;;11.30;76.10;;;;;;5011434;28;20162;-79
2021/12/18 13:30:59;;;;;;;35.72;25.98;;;11.30;76.20;;;;;;5011586;28;20038;-81
2021/12/18 13:33:29;;;;;;;36.28;27.83;;;11.30;76.40;;;;;;5011585;28;20087;-81
2021/12/18 13:36:01;;;;;;;34.55;26.00;;;11.20;76.50;;;;;;5011329;28;20037;-82
2021/12/18 13:38:36;;;;;;;38.92;28.10;;;11.20;76.50;;;;;;4991322;28;20458;-82
2021/12/18 13:41:02;;;;;;;38.58;27.95;;;11.10;76.80;;;;;;4987903;28;20030;-81
2021/12/18 13:43:27;;;;;;;36.08;27.20;;;11.10;77.00;;;;;;5003920;28;20062;-81